Time;durP1;ratioP1;P1;durP2;ratioP2;P2;SDS_P1;SDS_P2;PMS_P1;PMS_P2;Temp;Humidity;BMP_temperature;BMP_pressure;BME280_temperature;BME280_humidity;BME280_pressure;Samples;Min_cycle;Max_cycle;Signal;HPM_P1;HPM_P2
2023/05/09 00:00:09;;;;;;;17.17;11.50;;;15.40;99.90;;;16.00;100.00;98375.25;4925019;29;20573;-78
2023/05/09 00:02:39;;;;;;;17.43;10.30;;;15.40;99.90;;;16.01;100.00;98376.84;4924044;29;20471;-78
2023/05/09 00:05:10;;;;;;;13.90;10.20;;;15.30;99.90;;;15.98;100.00;98377.28;4925105;29;20467;-78
2023/05/09 00:07:39;;;;;;;19.13;11.20;;;15.30;99.90;;;15.96;100.00;98379.34;4924862;29;20462;-78
2023/05/09 00:10:09;;;;;;;15.17;10.80;;;15.40;99.90;;;15.97;100.00;98378.28;4925046;29;20498;-77
2023/05/09 00:12:38;;;;;;;12.80;9.77;;;15.30;99.90;;;15.97;100.00;98368.56;4923906;29;20530;-78
2023/05/09 00:15:08;;;;;;;16.13;10.53;;;15.30;99.90;;;15.99;100.00;98369.16;4925151;29;20490;-78
2023/05/09 00:17:37;;;;;;;15.33;11.30;;;15.30;99.90;;;16.00;100.00;98369.97;4925197;29;20470;-78
2023/05/09 00:20:11;;;;;;;14.87;10.90;;;15.30;99.90;;;16.03;100.00;98366.91;4922830;29;20476;-78
2023/05/09 00:22:40;;;;;;;16.17;10.67;;;15.30;99.90;;;16.03;100.00;98359.00;4924978;29;20479;-78
2023/05/09 00:25:11;;;;;;;23.60;10.23;;;15.30;99.90;;;16.06;100.00;98366.47;4925205;29;20499;-78
2023/05/09 00:27:40;;;;;;;13.30;9.77;;;15.30;99.90;;;16.05;100.00;98359.56;4925794;29;20808;-77
2023/05/09 00:30:10;;;;;;;18.03;10.80;;;15.30;99.90;;;16.04;100.00;98350.03;4925622;29;20585;-78
2023/05/09 00:32:40;;;;;;;15.97;10.53;;;15.30;99.90;;;16.05;100.00;98352.47;4925021;29;20467;-78
2023/05/09 00:35:11;;;;;;;17.07;10.77;;;15.40;99.90;;;16.05;100.00;98352.47;4924412;29;20463;-78
2023/05/09 00:37:39;;;;;;;18.63;11.80;;;15.40;99.90;;;16.06;100.00;98353.28;4927009;29;20449;-78
2023/05/09 00:40:10;;;;;;;15.53;11.67;;;15.40;99.90;;;16.05;100.00;98356.94;4924922;29;20470;-78
2023/05/09 00:42:39;;;;;;;18.93;11.73;;;15.40;99.90;;;16.04;100.00;98347.41;4925555;29;20466;-78
2023/05/09 00:45:09;;;;;;;18.30;11.73;;;15.40;99.90;;;16.01;100.00;98347.84;4923847;29;20466;-78
2023/05/09 00:47:39;;;;;;;17.93;12.10;;;15.40;99.90;;;15.99;100.00;98341.97;4925396;29;20470;-77
2023/05/09 00:50:10;;;;;;;16.73;11.00;;;15.30;99.90;;;16.01;100.00;98339.91;4923944;29;20466;-77
2023/05/09 00:52:39;;;;;;;16.13;11.80;;;15.30;99.90;;;16.03;100.00;98343.16;4926586;29;20517;-77
2023/05/09 00:55:09;;;;;;;25.50;11.13;;;15.30;99.90;;;16.04;100.00;98335.03;4924588;29;20998;-77
2023/05/09 00:57:37;;;;;;;19.20;11.60;;;15.30;99.90;;;16.04;100.00;98342.94;4923713;29;20923;-78
2023/05/09 01:00:11;;;;;;;12.07;9.70;;;15.30;99.90;;;16.05;100.00;98335.84;4924585;29;20549;-78
2023/05/09 01:02:42;;;;;;;16.07;11.23;;;15.30;99.90;;;16.04;100.00;98327.09;4924542;29;21340;-77
2023/05/09 01:05:12;;;;;;;20.20;11.10;;;15.30;99.90;;;16.04;100.00;98318.38;4924020;29;21063;-78
2023/05/09 01:07:50;;;;;;;17.40;12.00;;;15.30;99.90;;;16.02;100.00;98323.88;4924606;29;20525;-78
2023/05/09 01:10:32;;;;;;;17.67;11.80;;;15.30;99.90;;;16.03;100.00;98329.97;4924189;29;20585;-78
2023/05/09 01:13:09;;;;;;;18.87;11.87;;;15.30;99.90;;;16.04;100.00;98340.28;4923672;29;20505;-78
2023/05/09 01:15:51;;;;;;;17.70;12.70;;;15.20;99.90;;;16.05;100.00;98327.91;4924193;29;20475;-78
2023/05/09 01:18:33;;;;;;;24.43;12.07;;;15.20;99.90;;;16.04;100.00;98324.47;4925378;29;20511;-78
2023/05/09 01:21:09;;;;;;;22.07;11.80;;;15.20;99.90;;;16.02;100.00;98317.78;4923938;29;20462;-78
2023/05/09 01:24:04;;;;;;;19.90;12.10;;;15.30;99.90;;;16.00;100.00;98314.59;4924365;29;20558;-78
2023/05/09 01:26:45;;;;;;;18.43;12.50;;;15.30;99.90;;;15.99;100.00;98311.13;4924107;29;20466;-78
2023/05/09 01:29:37;;;;;;;21.37;10.97;;;15.30;99.90;;;15.99;100.00;98315.59;4924624;29;20478;-81
2023/05/09 01:32:14;;;;;;;16.20;10.80;;;15.30;99.90;;;16.00;100.00;98322.50;4923874;29;20489;-78
2023/05/09 01:34:45;;;;;;;26.43;12.27;;;15.30;99.90;;;15.98;100.00;98316.59;4924329;29;21043;-77
2023/05/09 01:37:18;;;;;;;20.10;10.63;;;15.20;99.90;;;15.97;100.00;98309.72;4923671;29;20557;-78
2023/05/09 01:39:53;;;;;;;16.90;11.57;;;15.20;99.90;;;15.97;100.00;98302.59;4924879;29;20478;-78
2023/05/09 01:42:25;;;;;;;17.47;10.93;;;15.20;99.90;;;15.96;100.00;98302.84;4923341;29;20473;-78
2023/05/09 01:44:55;;;;;;;14.53;10.67;;;15.20;99.90;;;15.96;100.00;98295.75;4925518;29;20470;-78
2023/05/09 01:47:27;;;;;;;17.37;11.70;;;15.20;99.90;;;15.96;100.00;98294.91;4924143;29;20493;-77
2023/05/09 01:49:56;;;;;;;19.60;11.77;;;15.20;99.90;;;15.97;100.00;98296.53;4922608;29;20884;-77
2023/05/09 01:52:26;;;;;;;17.70;12.63;;;15.20;99.90;;;15.97;100.00;98291.25;4922161;29;20644;-77
2023/05/09 01:54:56;;;;;;;19.13;12.13;;;15.20;99.90;;;15.99;100.00;98294.50;4924077;29;20987;-78
2023/05/09 01:57:27;;;;;;;18.17;11.60;;;15.20;99.90;;;15.99;100.00;98283.94;4924056;29;20466;-78
2023/05/09 01:59:59;;;;;;;16.70;11.30;;;15.20;99.90;;;15.98;100.00;98284.94;4923400;29;20541;-78
2023/05/09 02:02:28;;;;;;;18.40;12.30;;;15.20;99.90;;;15.97;100.00;98283.31;4924318;29;20467;-78
2023/05/09 02:04:59;;;;;;;18.27;11.97;;;15.20;99.90;;;15.97;100.00;98280.69;4924317;29;20550;-78
2023/05/09 02:07:30;;;;;;;15.97;11.57;;;15.20;99.90;;;15.97;100.00;98283.31;4924259;29;20474;-78
2023/05/09 02:10:02;;;;;;;17.87;12.70;;;15.20;99.90;;;15.96;100.00;98282.53;4924099;29;20818;-78
2023/05/09 02:12:30;;;;;;;18.60;11.77;;;15.20;99.90;;;15.97;100.00;98280.69;4921981;29;21016;-78
2023/05/09 02:15:00;;;;;;;17.70;12.33;;;15.20;99.90;;;15.96;100.00;98279.09;4923340;29;21052;-78
2023/05/09 02:17:30;;;;;;;17.70;11.70;;;15.20;99.90;;;15.96;100.00;98273.81;4919816;29;20470;-78
2023/05/09 02:19:59;;;;;;;17.90;12.33;;;15.20;99.90;;;15.97;100.00;98272.78;4919359;29;20474;-78
2023/05/09 02:22:28;;;;;;;16.90;12.03;;;15.20;99.90;;;15.95;100.00;98274.84;4921161;29;20813;-77
2023/05/09 02:24:57;;;;;;;22.07;13.00;;;15.20;99.90;;;15.94;100.00;98281.13;4924364;29;20552;-78
2023/05/09 02:27:27;;;;;;;19.60;13.20;;;15.20;99.90;;;15.94;100.00;98275.84;4922878;29;20982;-77
2023/05/09 02:30:00;;;;;;;14.70;10.90;;;15.20;99.90;;;15.92;100.00;98277.91;4923072;29;20545;-77
2023/05/09 02:32:34;;;;;;;20.77;11.67;;;15.20;99.90;;;15.91;100.00;98276.28;4921905;29;20545;-77
2023/05/09 02:35:06;;;;;;;21.83;13.47;;;15.20;99.90;;;15.92;100.00;98291.09;4922802;29;20466;-77
2023/05/09 02:37:37;;;;;;;31.47;12.53;;;15.20;99.90;;;15.89;100.00;98279.16;4922807;29;20470;-78
2023/05/09 02:40:10;;;;;;;15.03;11.13;;;15.10;99.90;;;15.90;100.00;98266.75;4923736;29;20454;-78
2023/05/09 02:42:39;;;;;;;16.50;11.43;;;15.20;99.90;;;15.90;100.00;98266.75;4921081;29;20525;-77
2023/05/09 02:45:10;;;;;;;18.13;12.17;;;15.10;99.90;;;15.90;100.00;98269.38;4922331;29;20490;-78
2023/05/09 02:47:41;;;;;;;17.20;11.20;;;15.20;99.90;;;15.91;100.00;98265.72;4922922;29;20482;-78
2023/05/09 02:50:10;;;;;;;17.63;11.60;;;15.20;99.90;;;15.89;100.00;98262.50;4922517;29;21098;-77
2023/05/09 02:52:39;;;;;;;16.87;11.87;;;15.20;99.90;;;15.90;100.00;98264.09;4920783;29;20533;-78
2023/05/09 02:55:09;;;;;;;14.50;10.67;;;15.20;99.90;;;15.90;100.00;98261.47;4921468;29;20844;-77
2023/05/09 02:57:38;;;;;;;16.10;10.70;;;15.10;99.90;;;15.91;100.00;98260.47;4922738;29;20881;-77
2023/05/09 03:00:08;;;;;;;18.40;11.50;;;15.10;99.90;;;15.90;100.00;98256.19;4921866;29;20557;-78
2023/05/09 03:02:37;;;;;;;21.00;11.37;;;15.20;99.90;;;15.88;100.00;98255.63;4920743;29;20558;-77
2023/05/09 03:05:09;;;;;;;18.27;11.87;;;15.20;99.90;;;15.88;100.00;98261.69;4923178;29;20501;-77
2023/05/09 03:07:39;;;;;;;16.73;10.97;;;15.10;99.90;;;15.88;100.00;98259.06;4923019;29;20463;-77
2023/05/09 03:10:10;;;;;;;22.27;12.90;;;15.10;99.90;;;15.88;100.00;98266.97;4918513;29;20876;-77
2023/05/09 03:12:38;;;;;;;16.40;12.70;;;15.20;99.90;;;15.88;100.00;98264.34;4919319;29;20597;-76
2023/05/09 03:15:08;;;;;;;16.10;11.80;;;15.20;99.90;;;15.89;100.00;98263.31;4920238;29;20502;-77
2023/05/09 03:17:37;;;;;;;17.30;11.80;;;15.10;99.90;;;15.88;100.00;98263.53;4917213;29;20565;-77
2023/05/09 03:20:10;;;;;;;18.40;12.50;;;15.20;99.90;;;15.88;100.00;98259.06;4915982;29;20467;-77
2023/05/09 03:22:39;;;;;;;15.87;12.40;;;15.20;99.90;;;15.88;100.00;98255.63;4921749;29;20973;-76
2023/05/09 03:25:08;;;;;;;17.17;12.83;;;15.20;99.90;;;15.88;100.00;98245.88;4920984;29;20826;-76
2023/05/09 03:27:36;;;;;;;17.30;11.87;;;15.10;99.90;;;15.87;100.00;98246.09;4918287;29;20758;-77
2023/05/09 03:30:08;;;;;;;19.73;13.23;;;15.20;99.90;;;15.87;100.00;98248.72;4920714;29;20609;-77
2023/05/09 03:32:36;;;;;;;20.80;14.80;;;15.20;99.90;;;15.84;100.00;98247.31;4921377;28;21069;-77
2023/05/09 03:35:09;;;;;;;21.73;14.70;;;15.10;99.90;;;15.85;100.00;98250.78;4921553;29;20467;-77
2023/05/09 03:37:38;;;;;;;17.80;12.10;;;15.10;99.90;;;15.84;100.00;98238.59;4921193;29;20763;-77
2023/05/09 03:40:09;;;;;;;17.97;12.80;;;15.10;99.90;;;15.84;100.00;98238.59;4920871;29;20466;-77
2023/05/09 03:42:38;;;;;;;20.50;13.90;;;15.10;99.90;;;15.84;100.00;98246.50;4921104;29;20549;-76
2023/05/09 03:45:08;;;;;;;17.43;12.60;;;15.10;99.90;;;15.83;100.00;98245.72;4920390;29;20527;-77
2023/05/09 03:47:36;;;;;;;21.50;13.10;;;15.10;99.90;;;15.83;100.00;98253.63;4920585;29;20482;-77
2023/05/09 03:50:09;;;;;;;22.93;14.20;;;15.10;99.90;;;15.81;100.00;98239.03;4921222;29;20516;-77
2023/05/09 03:52:37;;;;;;;20.00;12.40;;;15.10;99.90;;;15.80;100.00;98247.97;4920897;29;20820;-77
2023/05/09 03:55:07;;;;;;;22.80;13.40;;;15.10;99.90;;;15.79;100.00;98243.72;4921321;29;20498;-76
2023/05/09 03:57:36;;;;;;;23.73;13.23;;;15.10;99.90;;;15.79;100.00;98239.25;4913019;29;20916;-76
2023/05/09 04:00:09;;;;;;;24.40;12.00;;;15.10;99.90;;;15.77;100.00;98237.84;4920640;29;20818;-77
2023/05/09 04:02:38;;;;;;;22.10;12.50;;;15.10;99.90;;;15.77;100.00;98248.41;4922233;29;20498;-77
2023/05/09 04:05:08;;;;;;;18.23;12.63;;;15.10;99.90;;;15.77;100.00;98237.84;4921222;29;21100;-77
2023/05/09 04:07:38;;;;;;;19.70;13.20;;;15.10;99.90;;;15.75;100.00;98234.63;4920229;29;20966;-77
2023/05/09 04:10:09;;;;;;;21.97;13.30;;;15.10;99.90;;;15.74;100.00;98231.19;4919807;29;20477;-76
2023/05/09 04:12:37;;;;;;;19.30;12.80;;;15.10;99.90;;;15.75;100.00;98229.34;4919444;29;21080;-76
2023/05/09 04:15:10;;;;;;;22.90;12.60;;;15.10;99.90;;;15.75;100.00;98224.09;4918504;29;20471;-76
2023/05/09 04:17:38;;;;;;;21.17;12.33;;;15.10;99.90;;;15.75;100.00;98222.25;4922428;29;20537;-77
2023/05/09 04:20:11;;;;;;;20.37;12.83;;;15.00;99.90;;;15.74;100.00;98209.28;4921170;29;20450;-76
2023/05/09 04:22:40;;;;;;;19.00;11.90;;;15.00;99.90;;;15.74;100.00;98219.81;4915840;29;20528;-77
2023/05/09 04:25:11;;;;;;;20.33;12.33;;;15.00;99.90;;;15.69;100.00;98220.47;4913782;29;20458;-75
2023/05/09 04:27:40;;;;;;;20.80;14.43;;;15.00;99.90;;;15.68;100.00;98220.69;4919099;29;20462;-77
2023/05/09 04:30:10;;;;;;;23.17;13.13;;;15.00;99.90;;;15.67;100.00;98213.78;4914395;29;21214;-77
2023/05/09 04:32:38;;;;;;;21.63;13.03;;;15.00;99.90;;;15.68;100.00;98204.88;4916286;29;20593;-77
2023/05/09 04:35:10;;;;;;;20.37;12.20;;;15.00;99.90;;;15.66;100.00;98206.91;4913997;29;20467;-76
2023/05/09 04:37:39;;;;;;;18.33;13.60;;;15.00;99.90;;;15.66;100.00;98199.00;4915912;29;20467;-77
2023/05/09 04:40:11;;;;;;;17.80;12.30;;;15.00;99.90;;;15.65;100.00;98207.94;4911582;29;21001;-77
2023/05/09 04:42:41;;;;;;;20.03;12.83;;;15.00;99.90;;;15.65;100.00;98213.22;4917503;29;20721;-78
2023/05/09 04:45:11;;;;;;;16.93;12.00;;;15.00;99.90;;;15.63;100.00;98209.97;4924368;29;20851;-78
2023/05/09 04:47:40;;;;;;;17.47;12.60;;;15.00;99.90;;;15.63;100.00;98212.59;4927031;29;20466;-78
2023/05/09 04:50:12;;;;;;;21.87;14.40;;;15.00;99.90;;;15.60;100.00;98206.75;4925284;29;20474;-79
2023/05/09 04:52:41;;;;;;;20.10;13.43;;;15.00;99.90;;;15.62;100.00;98203.88;4925432;29;20498;-78
2023/05/09 04:55:10;;;;;;;19.30;12.40;;;15.00;99.90;;;15.65;100.00;98198.22;4926439;29;20870;-79
2023/05/09 04:57:39;;;;;;;24.73;13.50;;;15.00;99.90;;;15.69;100.00;98199.38;4925446;29;20474;-79
2023/05/09 05:00:10;;;;;;;21.10;12.37;;;15.00;99.90;;;15.72;100.00;98196.31;4925351;29;20565;-79
2023/05/09 05:02:39;;;;;;;20.70;13.70;;;15.00;99.90;;;15.73;100.00;98199.75;4926662;29;20999;-78
2023/05/09 05:05:10;;;;;;;21.00;13.80;;;15.00;99.90;;;15.77;100.00;98203.56;4926973;29;20712;-79
2023/05/09 05:07:40;;;;;;;23.17;13.77;;;15.00;99.90;;;15.76;100.00;98202.75;4925523;29;20482;-78
2023/05/09 05:10:09;;;;;;;24.20;15.47;;;15.00;99.90;;;15.77;100.00;98201.75;4925646;29;20485;-79
2023/05/09 05:12:39;;;;;;;24.90;14.23;;;15.00;99.90;;;15.78;100.00;98203.38;4926302;29;20490;-80
2023/05/09 05:15:11;;;;;;;20.87;13.33;;;15.00;99.90;;;15.79;100.00;98206.81;4926416;29;20466;-78
2023/05/09 05:17:40;;;;;;;16.73;13.03;;;15.00;99.90;;;15.81;100.00;98207.41;4925632;29;20475;-78
2023/05/09 05:20:11;;;;;;;25.80;14.10;;;15.10;99.90;;;15.81;100.00;98196.84;4925287;29;20470;-78
2023/05/09 05:22:40;;;;;;;18.33;12.27;;;15.10;99.90;;;15.82;100.00;98193.19;4926172;29;21282;-78
2023/05/09 05:25:09;;;;;;;18.33;12.63;;;15.10;99.90;;;15.83;100.00;98195.59;4925261;29;20848;-78
2023/05/09 05:27:38;;;;;;;27.20;13.53;;;15.10;99.90;;;15.85;100.00;98203.31;4926516;29;20473;-78
2023/05/09 05:30:09;;;;;;;19.77;14.20;;;15.10;99.90;;;15.85;100.00;98198.84;4925837;29;21201;-78
2023/05/09 05:32:38;;;;;;;24.10;14.70;;;15.10;99.90;;;15.85;100.00;98190.94;4925865;29;20466;-78
2023/05/09 05:35:08;;;;;;;22.50;13.23;;;15.20;99.90;;;15.87;100.00;98183.59;4925811;29;20475;-79
2023/05/09 05:37:39;;;;;;;23.10;15.00;;;15.20;99.90;;;15.87;100.00;98186.22;4925760;29;20537;-80
2023/05/09 05:40:09;;;;;;;20.77;12.63;;;15.20;99.90;;;15.88;100.00;98176.50;4926987;29;20470;-79
2023/05/09 05:42:38;;;;;;;20.37;12.27;;;15.20;99.90;;;15.91;100.00;98181.34;4926797;29;20577;-78
2023/05/09 05:45:09;;;;;;;19.23;12.50;;;15.20;99.90;;;15.92;100.00;98173.22;4925323;29;20467;-78
2023/05/09 05:47:38;;;;;;;22.17;14.13;;;15.20;99.90;;;15.94;100.00;98165.06;4925379;29;20469;-78
2023/05/09 05:50:10;;;;;;;22.87;12.97;;;15.20;99.90;;;15.95;100.00;98166.69;4925298;29;20474;-79
2023/05/09 05:52:41;;;;;;;18.33;12.50;;;15.20;99.90;;;15.98;100.00;98158.34;4924806;29;20466;-79
2023/05/09 05:55:10;;;;;;;18.73;13.37;;;15.30;99.90;;;16.03;100.00;98167.22;4925713;29;20462;-79
2023/05/09 05:57:38;;;;;;;20.93;14.90;;;15.40;99.90;;;16.06;100.00;98166.78;4927723;29;20548;-78
2023/05/09 06:00:09;;;;;;;20.30;12.73;;;15.40;99.90;;;16.08;100.00;98158.63;4929216;29;20830;-79
2023/05/09 06:02:38;;;;;;;18.03;13.03;;;15.40;99.90;;;16.09;100.00;98168.16;4928522;29;21024;-79
2023/05/09 06:05:10;;;;;;;15.97;10.80;;;15.40;99.90;;;16.07;100.00;98162.28;4929432;29;20488;-79
2023/05/09 06:07:40;;;;;;;12.03;9.10;;;15.40;99.90;;;16.10;100.00;98156.59;4929216;29;20509;-78
2023/05/09 06:10:09;;;;;;;16.73;11.20;;;15.40;99.90;;;16.10;100.00;98159.25;4929002;29;20525;-78
2023/05/09 06:12:38;;;;;;;14.83;9.53;;;15.40;99.90;;;16.11;100.00;98150.28;4928484;29;20984;-78
2023/05/09 06:15:08;;;;;;;15.10;11.00;;;15.50;99.90;;;16.13;100.00;98153.53;4928322;29;20603;-78
2023/05/09 06:17:37;;;;;;;14.47;10.97;;;15.50;99.90;;;16.16;100.00;98141.72;4931411;29;20514;-79
2023/05/09 06:20:07;;;;;;;19.50;10.60;;;15.50;99.90;;;16.18;100.00;98139.66;4929104;29;20470;-78
2023/05/09 06:22:36;;;;;;;17.67;11.97;;;15.60;99.90;;;16.24;100.00;98141.44;4927164;29;20737;-78
2023/05/09 06:25:08;;;;;;;24.23;12.70;;;15.60;99.90;;;16.31;100.00;98139.53;4928072;29;20473;-79
2023/05/09 06:27:38;;;;;;;15.53;10.63;;;15.70;99.90;;;16.35;100.00;98144.13;4927418;29;20479;-79
2023/05/09 06:30:08;;;;;;;14.17;10.37;;;15.70;99.90;;;16.41;100.00;98145.91;4928064;29;20475;-79
2023/05/09 06:32:52;;;;;;;23.37;11.43;;;15.80;99.90;;;16.39;100.00;98147.94;4928024;29;20529;-79
2023/05/09 06:35:21;;;;;;;23.67;11.70;;;15.70;99.90;;;16.45;100.00;98139.13;4928200;29;20513;-78
2023/05/09 06:37:50;;;;;;;15.40;10.60;;;15.80;99.90;;;16.47;100.00;98129.16;4929107;29;20471;-79
2023/05/09 06:40:20;;;;;;;15.83;11.43;;;15.80;99.90;;;16.46;100.00;98122.25;4927792;29;20992;-78
2023/05/09 06:42:49;;;;;;;20.70;12.10;;;15.80;99.90;;;16.50;100.00;98114.69;4928700;29;20462;-78
2023/05/09 06:45:17;;;;;;;23.40;13.20;;;15.90;99.90;;;16.46;100.00;98116.97;4927557;29;20471;-78
2023/05/09 06:47:47;;;;;;;18.13;12.90;;;15.90;99.90;;;16.45;100.00;98112.72;4928307;29;20514;-79
2023/05/09 06:50:15;;;;;;;18.93;11.60;;;15.90;99.90;;;16.47;100.00;98117.78;4928265;29;20541;-78
2023/05/09 06:52:44;;;;;;;16.10;11.63;;;15.90;99.90;;;16.46;100.00;98126.72;4928869;29;20557;-79
2023/05/09 06:55:12;;;;;;;18.43;11.03;;;15.90;99.90;;;16.48;100.00;98108.84;4928485;29;20505;-79
2023/05/09 06:57:43;;;;;;;16.00;10.90;;;15.90;99.90;;;16.51;100.00;98118.97;4927874;29;20857;-78
2023/05/09 07:00:17;;;;;;;16.00;10.87;;;15.90;99.90;;;16.55;100.00;98109.56;4926654;29;21065;-78
2023/05/09 07:02:45;;;;;;;20.53;10.40;;;15.90;99.90;;;16.58;100.00;98107.31;4927524;29;20470;-78
2023/05/09 07:05:14;;;;;;;16.07;11.90;;;16.00;99.90;;;16.63;100.00;98097.91;4928898;29;20463;-78
2023/05/09 07:07:44;;;;;;;15.77;9.80;;;16.00;99.90;;;16.62;100.00;98094.47;4927576;29;21037;-79
2023/05/09 07:10:13;;;;;;;15.57;10.03;;;16.10;99.90;;;16.56;100.00;98088.25;4926079;29;20509;-79
2023/05/09 07:12:44;;;;;;;18.33;11.83;;;16.00;99.90;;;16.63;100.00;98090.78;4927730;29;20546;-78
2023/05/09 07:15:12;;;;;;;14.67;9.83;;;16.00;99.90;;;16.62;100.00;98088.38;4928562;29;20486;-79
2023/05/09 07:17:53;;;;;;;14.50;11.57;;;16.00;99.90;;;16.67;100.00;98083.22;4927935;29;20501;-79
2023/05/09 07:20:21;;;;;;;18.83;11.17;;;16.10;99.90;;;16.74;100.00;98091.84;4929179;29;20528;-78
2023/05/09 07:22:50;;;;;;;16.97;10.40;;;16.10;99.90;;;16.76;100.00;98076.63;4927401;29;21004;-79
2023/05/09 07:25:18;;;;;;;18.70;10.63;;;16.10;99.90;;;16.80;100.00;98075.13;4928382;29;20474;-79
2023/05/09 07:27:48;;;;;;;12.63;9.67;;;16.20;99.90;;;16.88;100.00;98072.16;4928216;29;20846;-78
2023/05/09 07:30:17;;;;;;;12.40;8.93;;;16.20;99.90;;;16.95;100.00;98072.84;4926362;29;20467;-81
2023/05/09 07:32:45;;;;;;;23.80;9.03;;;16.30;99.90;;;16.96;100.00;98056.78;4929145;29;20466;-79
2023/05/09 07:35:14;;;;;;;12.50;8.53;;;16.40;99.90;;;17.01;100.00;98067.47;4926172;29;20558;-79
2023/05/09 07:37:43;;;;;;;9.30;7.07;;;16.40;99.90;;;17.00;100.00;98065.06;4928604;29;20466;-79
2023/05/09 07:40:13;;;;;;;8.20;6.47;;;16.30;99.90;;;17.02;100.00;98057.69;4928108;29;20466;-78
2023/05/09 07:42:48;;;;;;;12.30;6.53;;;16.30;99.90;;;17.07;100.00;98056.00;4911749;29;20498;-78
2023/05/09 07:45:19;;;;;;;5.37;4.77;;;16.40;99.90;;;17.04;100.00;98061.72;4927356;29;20884;-79
2023/05/09 07:47:51;;;;;;;6.97;4.90;;;16.40;99.90;;;17.07;100.00;98056.00;4928623;29;20467;-79
2023/05/09 07:50:20;;;;;;;10.73;5.17;;;16.50;99.90;;;17.17;100.00;98058.06;4926512;29;20475;-79
2023/05/09 07:52:48;;;;;;;7.00;4.90;;;16.50;99.90;;;17.26;100.00;98040.84;4927079;29;20479;-78
2023/05/09 07:55:18;;;;;;;7.20;5.33;;;16.60;99.90;;;17.33;100.00;98052.09;4926896;29;20581;-78
2023/05/09 07:57:47;;;;;;;7.10;5.13;;;16.70;99.90;;;17.37;100.00;98040.03;4926867;29;20975;-79
2023/05/09 08:00:16;;;;;;;8.30;6.10;;;16.80;99.90;;;17.43;100.00;98041.75;4928449;29;20492;-79
2023/05/09 08:02:46;;;;;;;6.43;4.93;;;16.90;99.90;;;17.43;100.00;98038.31;4926583;29;20478;-79
2023/05/09 08:05:15;;;;;;;7.17;5.30;;;17.00;99.90;;;17.49;100.00;98027.59;4927844;29;20509;-79
2023/05/09 08:07:44;;;;;;;5.80;4.60;;;17.00;99.90;;;17.54;100.00;98030.38;4927851;29;20470;-79
2023/05/09 08:10:13;;;;;;;6.20;5.23;;;17.00;99.90;;;17.55;100.00;98026.69;4925828;29;20479;-79
2023/05/09 08:12:42;;;;;;;6.07;5.00;;;17.10;99.90;;;17.47;100.00;98024.41;4926128;29;20569;-78
2023/05/09 08:15:11;;;;;;;5.73;4.30;;;16.90;99.90;;;17.51;100.00;98022.09;4926500;29;20573;-78
2023/05/09 08:17:41;;;;;;;11.60;3.93;;;16.90;99.90;;;17.55;100.00;98021.41;4927013;29;21013;-79
2023/05/09 08:20:13;;;;;;;8.03;4.10;;;17.00;99.90;;;17.56;100.00;98009.03;4926562;29;20474;-79
2023/05/09 08:22:42;;;;;;;9.03;4.10;;;17.10;99.90;;;17.63;100.00;98008.91;4925763;29;20502;-78
2023/05/09 08:25:13;;;;;;;4.80;4.10;;;17.10;99.90;;;17.65;100.00;98004.97;4927043;29;20541;-78
2023/05/09 08:27:42;;;;;;;9.47;4.73;;;17.10;99.90;;;17.70;100.00;98001.66;4927928;29;20462;-80
2023/05/09 08:30:12;;;;;;;6.13;4.00;;;17.20;99.90;;;17.68;100.00;97998.41;4925840;29;20474;-79
2023/05/09 08:32:41;;;;;;;6.20;3.90;;;17.10;99.90;;;17.74;100.00;98000.13;4927114;29;20474;-79
2023/05/09 08:35:13;;;;;;;5.37;3.70;;;17.10;99.90;;;17.81;100.00;97995.50;4926454;29;20506;-82
2023/05/09 08:37:43;;;;;;;4.97;3.70;;;17.20;99.90;;;17.86;100.00;97993.78;4927692;29;20466;-79
2023/05/09 08:40:12;;;;;;;5.80;3.17;;;17.30;99.90;;;17.94;100.00;97995.25;4925555;29;20473;-79
2023/05/09 08:42:44;;;;;;;4.73;3.70;;;17.30;99.90;;;18.01;100.00;97999.34;4926291;29;20466;-79
2023/05/09 08:45:16;;;;;;;7.17;4.10;;;17.40;99.90;;;18.04;100.00;97993.59;4926462;29;21052;-78
2023/05/09 08:47:45;;;;;;;4.33;3.60;;;17.60;99.90;;;18.06;100.00;97993.34;4926342;29;20502;-79
2023/05/09 08:50:17;;;;;;;7.37;3.67;;;17.50;99.90;;;18.10;100.00;97989.19;4926359;29;20477;-78
2023/05/09 08:52:48;;;;;;;5.23;3.77;;;17.50;99.90;;;18.13;100.00;97980.78;4926323;29;20489;-78
2023/05/09 08:55:18;;;;;;;9.20;3.77;;;17.60;99.90;;;18.19;100.00;97984.34;4927336;29;20494;-79
2023/05/09 08:57:47;;;;;;;5.67;3.47;;;17.70;99.90;;;18.28;100.00;97967.84;4926092;29;20474;-79
2023/05/09 09:00:19;;;;;;;5.93;3.43;;;17.80;99.90;;;18.37;100.00;97973.53;4925272;29;20549;-78
2023/05/09 09:02:51;;;;;;;5.00;3.50;;;17.80;99.90;;;18.45;100.00;97976.59;4925666;29;20466;-78
2023/05/09 09:05:24;;;;;;;5.83;3.50;;;18.00;99.90;;;18.46;100.00;97975.56;4926889;29;20493;-78
2023/05/09 09:08:09;;;;;;;6.67;4.10;;;18.00;99.90;;;18.44;100.00;97961.75;4913318;29;20473;-78
2023/05/09 09:10:45;;;;;;;7.60;3.07;;;18.00;99.90;;;18.47;100.00;97961.28;4926349;29;20533;-78
2023/05/09 09:13:17;;;;;;;5.33;3.13;;;18.00;99.90;;;18.45;100.00;97950.13;4924860;29;20479;-78
2023/05/09 09:15:48;;;;;;;7.00;2.83;;;18.00;99.90;;;18.48;100.00;97948.84;4927392;29;21028;-79
2023/05/09 09:18:23;;;;;;;7.60;3.07;;;17.90;99.90;;;18.47;100.00;97945.38;4926565;29;20478;-78
2023/05/09 09:21:03;;;;;;;6.07;2.90;;;17.90;99.90;;;18.45;100.00;97944.84;4926223;29;20890;-79
2023/05/09 09:23:33;;;;;;;3.67;2.80;;;17.90;99.90;;;18.52;100.00;97948.16;4924712;29;21155;-79
2023/05/09 09:26:03;;;;;;;4.63;2.50;;;17.90;99.90;;;18.55;100.00;97938.91;4926376;29;20506;-78
2023/05/09 09:28:33;;;;;;;4.70;2.97;;;17.90;99.90;;;18.51;100.00;97929.84;4926196;29;20471;-78
2023/05/09 09:31:02;;;;;;;3.10;2.80;;;17.90;99.90;;;18.64;100.00;97934.03;4927519;29;21071;-79
2023/05/09 09:33:30;;;;;;;4.27;2.63;;;18.00;99.90;;;18.73;100.00;97927.28;4929633;29;20459;-79
2023/05/09 09:36:03;;;;;;;5.60;2.83;;;18.30;99.90;;;18.77;100.00;97923.13;4928008;29;20506;-78
2023/05/09 09:38:42;;;;;;;4.77;2.90;;;18.20;99.90;;;18.63;100.00;97911.22;4930420;29;20493;-78
2023/05/09 09:41:13;;;;;;;3.53;2.87;;;18.00;99.90;;;18.62;100.00;97915.72;4929780;29;20466;-79
2023/05/09 09:43:46;;;;;;;4.60;2.60;;;18.00;99.90;;;18.67;100.00;97917.66;4929619;29;20549;-79
2023/05/09 09:46:17;;;;;;;9.80;2.70;;;18.10;99.90;;;18.72;100.00;97907.13;4930257;29;20473;-79
2023/05/09 09:48:51;;;;;;;2.87;2.30;;;18.20;99.90;;;18.69;100.00;97902.31;4929119;29;20554;-78
2023/05/09 09:51:22;;;;;;;5.60;2.77;;;18.10;99.90;;;18.79;100.00;97902.47;4929272;29;20505;-79
2023/05/09 09:53:52;;;;;;;2.30;2.10;;;18.20;99.90;;;18.86;100.00;97895.94;4930239;29;20530;-78
2023/05/09 09:56:21;;;;;;;7.37;2.50;;;18.30;99.90;;;18.99;100.00;97892.16;4929301;29;20502;-78
2023/05/09 09:58:50;;;;;;;3.37;2.60;;;18.50;99.90;;;19.09;100.00;97885.13;4930016;29;21044;-78
2023/05/09 10:01:19;;;;;;;3.60;2.60;;;18.60;99.90;;;19.19;100.00;97884.50;4930423;29;20970;-78
2023/05/09 10:03:48;;;;;;;4.50;2.50;;;18.70;99.90;;;19.22;100.00;97878.69;4930518;29;20864;-79
2023/05/09 10:06:17;;;;;;;2.27;2.07;;;18.80;99.90;;;19.26;100.00;97871.84;4928340;29;20467;-78
2023/05/09 10:08:48;;;;;;;2.60;2.03;;;18.80;99.90;;;19.34;100.00;97868.75;4930092;29;20537;-78
2023/05/09 10:11:18;;;;;;;4.30;2.60;;;18.90;99.90;;;19.42;100.00;97860.41;4929133;29;20530;-78
2023/05/09 10:13:47;;;;;;;3.60;2.40;;;18.90;99.90;;;19.50;100.00;97853.84;4928822;29;20466;-78
2023/05/09 10:16:16;;;;;;;3.00;2.30;;;19.00;99.90;;;19.54;100.00;97852.31;4929305;29;20593;-78